Time;durP1;ratioP1;P1;durP2;ratioP2;P2;SDS_P1;SDS_P2;PMS_P1;PMS_P2;Temp;Humidity;BMP_temperature;BMP_pressure;BME280_temperature;BME280_humidity;BME280_pressure;Samples;Min_cycle;Max_cycle;Signal;HPM_P1;HPM_P2
2022/10/28 00:01:21;;;;;;;9.82;5.45;;;16.10;99.90;;;;;;5092185;28;20051;-83
2022/10/28 00:03:49;;;;;;;14.80;6.05;;;16.10;99.90;;;;;;5092018;28;20530;-83
2022/10/28 00:06:17;;;;;;;12.13;6.35;;;16.10;99.90;;;;;;5092364;28;20078;-83
2022/10/28 00:08:43;;;;;;;13.50;6.05;;;16.00;99.90;;;;;;5074929;28;20021;-84
2022/10/28 00:11:15;;;;;;;14.93;6.20;;;16.00;99.90;;;;;;5076195;28;20385;-83
2022/10/28 00:13:42;;;;;;;15.73;6.53;;;16.00;99.90;;;;;;5091980;28;20024;-83
2022/10/28 00:16:29;;;;;;;10.50;4.95;;;16.00;99.90;;;;;;5091757;28;20077;-83
2022/10/28 00:18:57;;;;;;;12.70;6.43;;;15.90;99.90;;;;;;5091361;28;20539;-83
2022/10/28 00:21:25;;;;;;;9.18;5.30;;;15.90;99.90;;;;;;5076255;28;20025;-84
2022/10/28 00:23:51;;;;;;;11.73;5.90;;;15.90;99.90;;;;;;5090970;28;20038;-83
2022/10/28 00:26:28;;;;;;;12.85;6.10;;;15.90;99.90;;;;;;5091615;28;20017;-84
2022/10/28 00:28:59;;;;;;;13.02;6.25;;;15.80;99.90;;;;;;5091773;28;20069;-83
2022/10/28 00:31:27;;;;;;;11.32;6.45;;;15.80;99.90;;;;;;5091542;28;20035;-83
2022/10/28 00:33:54;;;;;;;12.40;6.47;;;15.80;99.90;;;;;;5075990;28;20495;-83
2022/10/28 00:36:31;;;;;;;13.10;6.43;;;15.80;99.90;;;;;;5075973;28;20234;-84
2022/10/28 00:38:58;;;;;;;14.45;6.82;;;15.70;99.90;;;;;;5075833;28;20381;-83
2022/10/28 00:41:33;;;;;;;13.40;6.68;;;15.70;99.90;;;;;;5075818;28;20016;-83
2022/10/28 00:44:02;;;;;;;13.77;6.95;;;15.70;99.90;;;;;;5091216;28;20040;-83
2022/10/28 00:46:41;;;;;;;12.93;6.95;;;15.70;99.90;;;;;;5075644;28;20024;-84
2022/10/28 00:49:16;;;;;;;13.45;6.40;;;15.60;99.90;;;;;;5091103;28;20021;-83
2022/10/28 00:51:43;;;;;;;13.43;6.82;;;15.60;99.90;;;;;;5075522;28;20025;-84
2022/10/28 00:54:10;;;;;;;15.75;7.53;;;15.60;99.90;;;;;;5074442;28;20063;-84
2022/10/28 00:56:41;;;;;;;19.05;6.85;;;15.60;99.90;;;;;;5074317;28;20082;-83
2022/10/28 00:59:12;;;;;;;15.00;7.03;;;15.60;99.90;;;;;;5090933;28;20021;-84
2022/10/28 01:01:38;;;;;;;13.65;7.10;;;15.50;99.90;;;;;;5075250;28;20017;-84
2022/10/28 01:04:03;;;;;;;21.85;8.35;;;15.50;99.90;;;;;;5074077;28;20031;-84
2022/10/28 01:06:29;;;;;;;14.00;6.90;;;15.50;99.90;;;;;;5073840;28;20031;-83
2022/10/28 01:08:55;;;;;;;16.15;7.57;;;15.50;99.90;;;;;;5090721;28;20032;-84
2022/10/28 01:11:58;;;;;;;12.95;7.10;;;15.50;99.90;;;;;;5090723;28;20074;-83
2022/10/28 01:14:39;;;;;;;16.33;7.20;;;15.50;99.90;;;;;;5073702;28;20032;-84
2022/10/28 01:17:37;;;;;;;15.18;8.35;;;15.40;99.90;;;;;;5073542;28;20053;-83
2022/10/28 01:20:15;;;;;;;17.20;7.25;;;15.40;99.90;;;;;;5074907;28;20364;-83
2022/10/28 01:22:55;;;;;;;17.25;7.97;;;15.40;99.90;;;;;;5073808;28;20060;-83
2022/10/28 01:25:58;;;;;;;13.63;6.97;;;15.30;99.90;;;;;;5073753;28;20074;-83
2022/10/28 01:29:01;;;;;;;16.08;7.57;;;15.30;99.90;;;;;;5075019;28;20021;-83
2022/10/28 01:31:27;;;;;;;15.50;7.35;;;15.30;99.90;;;;;;5090610;28;20012;-83
2022/10/28 01:34:13;;;;;;;14.10;7.55;;;15.30;99.90;;;;;;5073576;28;20028;-83
2022/10/28 01:37:07;;;;;;;13.45;7.25;;;15.30;99.90;;;;;;5072768;28;20046;-83
2022/10/28 01:39:53;;;;;;;17.00;7.53;;;15.30;99.90;;;;;;5073418;28;20044;-83
2022/10/28 01:42:37;;;;;;;13.27;7.50;;;15.20;99.90;;;;;;5090307;28;20031;-84
2022/10/28 01:45:18;;;;;;;15.73;7.78;;;15.20;99.90;;;;;;5073257;28;20032;-77
2022/10/28 01:48:22;;;;;;;16.10;8.02;;;15.20;99.90;;;;;;5090018;28;20029;-77
2022/10/28 01:50:58;;;;;;;11.67;7.00;;;15.20;99.90;;;;;;5051973;28;20079;-77
2022/10/28 01:53:29;;;;;;;15.38;7.93;;;15.20;99.90;;;;;;5071482;28;20271;-77
2022/10/28 01:56:01;;;;;;;14.93;7.75;;;15.10;99.90;;;;;;5089811;28;20032;-77
2022/10/28 01:58:30;;;;;;;16.08;7.63;;;15.10;99.90;;;;;;5089832;28;20024;-77
2022/10/28 02:00:58;;;;;;;18.58;8.15;;;15.10;99.90;;;;;;5074229;28;20027;-77
2022/10/28 02:03:24;;;;;;;17.05;8.95;;;15.10;99.90;;;;;;5072765;28;20503;-77
2022/10/28 02:05:57;;;;;;;14.02;7.43;;;15.10;99.90;;;;;;5056346;28;20025;-77
2022/10/28 02:08:32;;;;;;;16.55;8.88;;;15.10;99.90;;;;;;5073962;28;20126;-77
2022/10/28 02:11:03;;;;;;;12.60;7.78;;;15.10;99.90;;;;;;5089954;28;20048;-77
2022/10/28 02:14:03;;;;;;;13.43;7.32;;;15.00;99.90;;;;;;5073930;28;20020;-77
2022/10/28 02:16:37;;;;;;;15.48;7.88;;;15.00;99.90;;;;;;5072299;28;20044;-77
2022/10/28 02:19:21;;;;;;;16.67;8.93;;;15.00;99.90;;;;;;5072501;28;20382;-77
2022/10/28 02:21:49;;;;;;;17.55;8.75;;;15.00;99.90;;;;;;5073775;28;20024;-77
2022/10/28 02:24:21;;;;;;;14.45;9.38;;;15.00;99.90;;;;;;5089566;28;20029;-77
2022/10/28 02:26:55;;;;;;;21.27;10.35;;;15.00;99.90;;;;;;5073636;28;20543;-77
2022/10/28 02:29:32;;;;;;;13.98;8.93;;;15.00;99.90;;;;;;5073750;28;20020;-77
2022/10/28 02:32:05;;;;;;;17.27;9.52;;;15.00;99.90;;;;;;5089268;28;20035;-77
2022/10/28 02:34:42;;;;;;;19.20;11.15;;;14.90;99.90;;;;;;5090316;28;20051;-83
2022/10/28 02:37:14;;;;;;;16.52;9.32;;;15.00;99.90;;;;;;5090183;28;20032;-83
2022/10/28 02:39:45;;;;;;;24.15;10.00;;;14.90;99.90;;;;;;5073528;28;20483;-84
2022/10/28 02:42:26;;;;;;;18.73;10.00;;;14.90;99.90;;;;;;5089514;28;20044;-83
2022/10/28 02:45:12;;;;;;;17.98;9.30;;;14.90;99.90;;;;;;5089049;28;20070;-83
2022/10/28 02:47:42;;;;;;;16.27;8.93;;;14.90;99.90;;;;;;5073208;28;20028;-83
2022/10/28 02:50:14;;;;;;;18.38;9.27;;;14.90;99.90;;;;;;5073437;28;20146;-83
2022/10/28 02:52:43;;;;;;;15.57;9.30;;;14.90;99.90;;;;;;5073341;28;20440;-83
2022/10/28 02:55:08;;;;;;;17.20;9.35;;;14.90;99.90;;;;;;5088931;28;20035;-83
2022/10/28 02:57:38;;;;;;;18.95;9.95;;;14.90;99.90;;;;;;5072081;28;20037;-83
2022/10/28 03:00:15;;;;;;;19.05;9.48;;;14.90;99.90;;;;;;5073290;28;20473;-83
2022/10/28 03:02:41;;;;;;;16.55;8.55;;;14.90;99.90;;;;;;5073317;28;20039;-83
2022/10/28 03:05:07;;;;;;;13.10;7.82;;;14.90;99.90;;;;;;5088769;28;20123;-84
2022/10/28 03:07:32;;;;;;;14.52;8.35;;;14.90;99.90;;;;;;5072284;28;20108;-84
2022/10/28 03:09:58;;;;;;;17.45;8.32;;;14.80;99.90;;;;;;5088744;28;20399;-83
2022/10/28 03:12:23;;;;;;;15.10;8.75;;;14.90;99.90;;;;;;5072056;28;20381;-83
2022/10/28 03:14:49;;;;;;;17.98;8.15;;;14.90;99.90;;;;;;5071854;28;20075;-84
2022/10/28 03:17:15;;;;;;;15.90;8.30;;;14.80;99.90;;;;;;5071782;28;20063;-83
2022/10/28 03:19:40;;;;;;;13.73;8.30;;;14.80;99.90;;;;;;5055244;28;20545;-84
2022/10/28 03:22:06;;;;;;;14.05;7.75;;;14.90;99.90;;;;;;5072026;28;20090;-78
2022/10/28 03:24:32;;;;;;;18.05;8.63;;;14.80;99.90;;;;;;5071677;28;20520;-77
2022/10/28 03:26:57;;;;;;;17.65;8.82;;;14.80;99.90;;;;;;5054947;28;20079;-77
2022/10/28 03:29:23;;;;;;;15.15;8.45;;;14.80;99.90;;;;;;5055039;28;20048;-77
2022/10/28 03:31:48;;;;;;;13.77;7.97;;;14.80;99.90;;;;;;5054867;28;20037;-77
2022/10/28 03:34:14;;;;;;;16.63;7.88;;;14.80;99.90;;;;;;5088441;28;20127;-83
2022/10/28 03:36:40;;;;;;;18.00;8.23;;;14.80;99.90;;;;;;5071849;28;20021;-83
2022/10/28 03:39:05;;;;;;;14.48;8.63;;;14.80;99.90;;;;;;5071673;28;20020;-83
2022/10/28 03:41:31;;;;;;;15.10;7.57;;;14.80;99.90;;;;;;5055000;28;20027;-84
2022/10/28 03:43:56;;;;;;;16.90;8.27;;;14.70;99.90;;;;;;5071684;28;20021;-83
2022/10/28 03:46:22;;;;;;;13.63;8.00;;;14.70;99.90;;;;;;5071770;28;20132;-83
2022/10/28 03:48:48;;;;;;;15.07;8.10;;;14.70;99.90;;;;;;5072849;28;20029;-83
2022/10/28 03:51:13;;;;;;;16.85;8.10;;;14.70;99.90;;;;;;5071743;28;20021;-84
2022/10/28 03:53:39;;;;;;;19.88;8.07;;;14.70;99.90;;;;;;5072063;28;20029;-83
2022/10/28 03:56:05;;;;;;;17.30;8.05;;;14.70;99.90;;;;;;5071664;28;20036;-84
2022/10/28 03:58:31;;;;;;;15.27;8.70;;;14.60;99.90;;;;;;5072459;28;20032;-83
2022/10/28 04:00:56;;;;;;;19.67;8.18;;;14.60;99.90;;;;;;5058668;28;20381;-83
2022/10/28 04:03:23;;;;;;;18.42;8.25;;;14.60;99.90;;;;;;5075370;28;20425;-84
2022/10/28 04:05:49;;;;;;;16.02;8.88;;;14.60;99.90;;;;;;5092112;28;20029;-77
2022/10/28 04:08:16;;;;;;;17.75;8.07;;;14.60;99.90;;;;;;5076196;28;20020;-77
2022/10/28 04:10:42;;;;;;;16.20;8.85;;;14.50;99.90;;;;;;5091709;28;20039;-77
2022/10/28 04:13:08;;;;;;;16.80;8.45;;;14.50;99.90;;;;;;5075104;28;20032;-77
2022/10/28 04:15:35;;;;;;;14.98;7.40;;;14.50;99.90;;;;;;5091837;28;20028;-76
2022/10/28 04:18:01;;;;;;;14.60;7.55;;;14.50;99.90;;;;;;5074677;28;20082;-84
2022/10/28 04:20:27;;;;;;;15.10;7.75;;;14.50;99.90;;;;;;5075026;28;20119;-83
2022/10/28 04:22:53;;;;;;;21.17;8.18;;;14.50;99.90;;;;;;5091805;28;20107;-84
2022/10/28 04:25:23;;;;;;;16.15;7.45;;;14.50;99.90;;;;;;5074986;28;20036;-83
2022/10/28 04:27:49;;;;;;;15.30;7.07;;;14.50;99.90;;;;;;5091700;28;20017;-83
2022/10/28 04:30:15;;;;;;;14.02;7.32;;;14.50;99.90;;;;;;5091544;28;20085;-83
2022/10/28 04:32:41;;;;;;;16.15;7.47;;;14.50;99.90;;;;;;5091435;28;20021;-83
2022/10/28 04:35:08;;;;;;;17.25;8.10;;;14.40;99.90;;;;;;5091512;28;20032;-83
2022/10/28 04:37:33;;;;;;;19.23;8.18;;;14.50;99.90;;;;;;5091452;28;20024;-84
2022/10/28 04:39:59;;;;;;;15.35;7.05;;;14.40;99.90;;;;;;5091405;28;20472;-83
2022/10/28 04:42:25;;;;;;;13.02;7.35;;;14.40;99.90;;;;;;5074605;28;20028;-83
2022/10/28 04:44:50;;;;;;;15.18;7.50;;;14.40;99.90;;;;;;5091515;28;20115;-84
2022/10/28 04:47:16;;;;;;;20.20;7.55;;;14.40;99.90;;;;;;5074569;28;20024;-84
2022/10/28 04:49:42;;;;;;;14.68;6.82;;;14.40;99.90;;;;;;5091430;28;20025;-83
2022/10/28 04:52:09;;;;;;;12.45;6.93;;;14.40;99.90;;;;;;5075769;28;20384;-84
2022/10/28 04:54:34;;;;;;;13.45;7.32;;;14.40;99.90;;;;;;5075472;28;20029;-84
2022/10/28 04:57:00;;;;;;;16.17;7.55;;;14.40;99.90;;;;;;5074456;28;20534;-83
2022/10/28 04:59:26;;;;;;;12.80;5.97;;;14.40;99.90;;;;;;5091005;28;20537;-85
2022/10/28 05:01:51;;;;;;;14.32;6.85;;;14.40;99.90;;;;;;5091201;28;20017;-84
2022/10/28 05:04:17;;;;;;;10.63;6.80;;;14.40;99.90;;;;;;5074157;28;20016;-84
2022/10/28 05:06:43;;;;;;;11.57;6.85;;;14.40;99.90;;;;;;5057304;28;20396;-84
2022/10/28 05:09:08;;;;;;;12.20;6.22;;;14.30;99.90;;;;;;5090712;28;20020;-84
2022/10/28 05:11:34;;;;;;;12.85;6.43;;;14.30;99.90;;;;;;5073909;28;20063;-84
2022/10/28 05:13:59;;;;;;;16.08;6.80;;;14.30;99.90;;;;;;5074078;28;20032;-84
2022/10/28 05:16:25;;;;;;;11.48;6.63;;;14.30;99.90;;;;;;5073761;28;20476;-84
2022/10/28 05:18:51;;;;;;;14.45;6.22;;;14.30;99.90;;;;;;5073743;28;20127;-85
2022/10/28 05:21:16;;;;;;;12.32;6.47;;;14.30;99.90;;;;;;5073695;28;20025;-84
2022/10/28 05:23:42;;;;;;;12.75;6.18;;;14.30;99.90;;;;;;5073897;28;20028;-84
2022/10/28 05:26:08;;;;;;;11.80;5.68;;;14.30;99.90;;;;;;5073768;28;20025;-84
2022/10/28 05:28:33;;;;;;;12.25;5.90;;;14.30;99.90;;;;;;5054038;28;20487;-84
2022/10/28 05:30:59;;;;;;;10.68;5.68;;;14.30;99.90;;;;;;5045465;28;20021;-84
2022/10/28 05:33:25;;;;;;;11.85;5.78;;;14.30;99.90;;;;;;5080398;28;20029;-84
2022/10/28 05:35:51;;;;;;;14.10;5.60;;;14.30;99.90;;;;;;5039053;28;20025;-84
2022/10/28 05:38:17;;;;;;;17.30;6.43;;;14.30;99.90;;;;;;5064773;28;20033;-84
2022/10/28 05:40:42;;;;;;;13.98;5.90;;;14.30;99.90;;;;;;5060150;28;20036;-83
2022/10/28 05:43:09;;;;;;;10.63;5.03;;;14.20;99.90;;;;;;5056884;28;20392;-83
2022/10/28 05:45:34;;;;;;;15.40;6.20;;;14.30;99.90;;;;;;5070985;28;20503;-84
2022/10/28 05:48:00;;;;;;;15.40;5.90;;;14.30;99.90;;;;;;5065251;28;20115;-84
2022/10/28 05:50:25;;;;;;;15.18;5.40;;;14.30;99.90;;;;;;5063183;28;20038;-84
2022/10/28 05:52:53;;;;;;;13.52;5.18;;;14.40;99.90;;;;;;5052318;28;20125;-84
2022/10/28 05:55:21;;;;;;;11.05;5.07;;;14.40;99.90;;;;;;5065045;28;20045;-84
2022/10/28 05:57:48;;;;;;;15.10;5.65;;;14.50;99.90;;;;;;5052539;28;20115;-84
2022/10/28 06:00:15;;;;;;;11.05;5.00;;;14.60;99.90;;;;;;5066423;28;20033;-84
2022/10/28 06:02:41;;;;;;;11.43;4.93;;;14.60;99.90;;;;;;5069046;28;20032;-84
2022/10/28 06:05:08;;;;;;;11.32;5.22;;;14.60;99.90;;;;;;5081506;28;20480;-83
2022/10/28 06:07:35;;;;;;;17.05;4.57;;;14.70;99.90;;;;;;5070552;28;20024;-83
2022/10/28 06:10:01;;;;;;;14.63;5.32;;;14.80;99.90;;;;;;5068788;28;20059;-77
2022/10/28 06:12:27;;;;;;;12.80;4.30;;;14.80;99.90;;;;;;5083199;28;20025;-77
2022/10/28 06:14:53;;;;;;;14.10;5.00;;;14.90;99.90;;;;;;5071764;28;20029;-77
2022/10/28 06:17:18;;;;;;;12.48;4.35;;;15.00;99.90;;;;;;5087898;28;20052;-76
2022/10/28 06:19:44;;;;;;;11.40;4.32;;;15.00;99.90;;;;;;5053833;28;20032;-77
2022/10/28 06:22:11;;;;;;;16.42;4.97;;;15.10;99.90;;;;;;5067222;28;20033;-77
2022/10/28 06:24:37;;;;;;;13.57;4.90;;;15.20;99.90;;;;;;5053449;28;20103;-76
2022/10/28 06:27:03;;;;;;;16.65;4.25;;;15.20;99.90;;;;;;5050714;28;20109;-76
2022/10/28 06:29:28;;;;;;;15.68;4.80;;;15.30;99.90;;;;;;5051575;28;20670;-77
2022/10/28 06:31:54;;;;;;;12.93;4.75;;;15.30;99.90;;;;;;5052502;28;20044;-77
2022/10/28 06:34:19;;;;;;;17.23;4.03;;;15.40;99.90;;;;;;5052221;28;20123;-77
2022/10/28 06:36:45;;;;;;;18.63;4.93;;;15.40;99.90;;;;;;5035898;28;20488;-77
2022/10/28 06:39:11;;;;;;;10.00;4.10;;;15.40;99.90;;;;;;5054086;28;20071;-78
2022/10/28 06:41:36;;;;;;;12.55;4.35;;;15.50;99.90;;;;;;5036402;28;20083;-78
2022/10/28 06:44:02;;;;;;;15.98;4.60;;;15.60;99.90;;;;;;5036609;28;20063;-77
2022/10/28 06:46:28;;;;;;;12.35;4.30;;;15.60;99.90;;;;;;5054261;28;20036;-78
2022/10/28 06:48:54;;;;;;;13.40;4.25;;;15.60;99.90;;;;;;5065227;28;20037;-79
2022/10/28 06:51:20;;;;;;;15.23;4.00;;;15.70;99.90;;;;;;5070987;28;20017;-79
2022/10/28 06:53:50;;;;;;;9.10;4.40;;;15.70;99.90;;;;;;5052140;28;20036;-78
2022/10/28 06:56:16;;;;;;;10.20;3.70;;;15.80;99.90;;;;;;5069314;28;20060;-79
2022/10/28 06:58:42;;;;;;;11.20;4.70;;;15.80;99.90;;;;;;5070125;28;20025;-78
2022/10/28 07:01:08;;;;;;;13.15;3.72;;;15.90;99.90;;;;;;5054109;28;20071;-79
2022/10/28 07:03:34;;;;;;;13.98;4.72;;;15.90;99.90;;;;;;5052834;28;20347;-79
2022/10/28 07:06:00;;;;;;;10.25;4.68;;;16.00;99.90;;;;;;5069393;28;20109;-80
2022/10/28 07:08:26;;;;;;;14.80;4.88;;;16.10;99.90;;;;;;5053437;28;20465;-78
2022/10/28 07:10:56;;;;;;;13.10;4.28;;;16.10;99.90;;;;;;5051901;28;20039;-79
2022/10/28 07:13:23;;;;;;;11.68;4.57;;;16.10;99.90;;;;;;5071714;28;20032;-78
2022/10/28 07:15:56;;;;;;;8.23;4.10;;;16.20;99.90;;;;;;5064987;28;20051;-78
2022/10/28 07:18:24;;;;;;;10.75;3.70;;;16.30;99.90;;;;;;5085698;28;20446;-78
2022/10/28 07:20:50;;;;;;;13.10;4.10;;;16.30;99.90;;;;;;5072980;28;20082;-78
2022/10/28 07:23:16;;;;;;;12.43;4.00;;;16.40;99.90;;;;;;5073104;28;20350;-78
2022/10/28 07:25:42;;;;;;;13.05;4.18;;;16.40;99.90;;;;;;5071881;28;20036;-78
2022/10/28 07:28:08;;;;;;;12.85;3.95;;;16.50;99.90;;;;;;5071694;28;20020;-78
2022/10/28 07:30:33;;;;;;;9.88;3.70;;;16.50;99.90;;;;;;5071983;28;20058;-79
2022/10/28 07:33:00;;;;;;;12.98;4.00;;;16.50;99.90;;;;;;5055223;28;20036;-78
2022/10/28 07:35:27;;;;;;;10.45;3.53;;;16.60;99.90;;;;;;5059092;28;20033;-79
2022/10/28 07:37:53;;;;;;;10.45;3.65;;;16.60;99.90;;;;;;5076898;28;20469;-78
2022/10/28 07:40:20;;;;;;;14.32;4.20;;;16.70;99.90;;;;;;5075407;28;20025;-78
2022/10/28 07:42:45;;;;;;;12.30;3.85;;;16.70;99.90;;;;;;5075407;28;20025;-78
2022/10/28 07:45:11;;;;;;;15.02;4.28;;;16.80;99.90;;;;;;5075413;28;20385;-78
2022/10/28 07:47:37;;;;;;;14.52;5.03;;;16.80;99.90;;;;;;5075446;28;20074;-78
2022/10/28 07:50:05;;;;;;;10.55;3.78;;;16.80;99.90;;;;;;5075318;28;20058;-78
2022/10/28 07:52:32;;;;;;;10.15;3.58;;;16.90;99.90;;;;;;5075318;28;20025;-79
2022/10/28 07:54:57;;;;;;;13.18;4.47;;;16.90;99.90;;;;;;5075478;28;20024;-79
2022/10/28 10:20:56;;;;;;;10.23;4.28;;;22.90;87.70;;;;;;5021602;27;1494053;-84
2022/10/28 10:23:30;;;;;;;10.38;3.83;;;22.90;88.70;;;;;;5042005;28;20055;-85
2022/10/28 10:26:10;;;;;;;8.80;3.70;;;23.00;88.40;;;;;;5034312;28;20051;-84
2022/10/28 10:28:41;;;;;;;11.35;3.72;;;23.20;88.30;;;;;;5029425;28;20025;-86
2022/10/28 10:31:15;;;;;;;10.65;3.70;;;23.40;87.40;;;;;;5029598;28;20030;-86
2022/10/28 10:33:41;;;;;;;7.40;3.13;;;23.50;86.60;;;;;;5030897;28;20093;-85
2022/10/28 10:36:09;;;;;;;8.88;3.30;;;23.80;86.90;;;;;;5013064;28;20441;-85
2022/10/28 10:38:36;;;;;;;12.77;3.83;;;24.00;85.70;;;;;;5029732;28;20117;-85
2022/10/28 10:41:02;;;;;;;17.75;3.60;;;24.20;84.90;;;;;;5029581;28;20032;-84
2022/10/28 10:43:38;;;;;;;13.93;3.63;;;24.40;83.30;;;;;;5035011;28;20037;-86
2022/10/28 10:46:11;;;;;;;15.05;3.22;;;24.50;82.30;;;;;;5046278;28;20030;-85
2022/10/28 10:48:37;;;;;;;12.50;3.73;;;24.70;80.70;;;;;;5029286;28;20036;-86
2022/10/28 10:51:31;;;;;;;11.20;2.70;;;25.00;79.80;;;;;;5012852;28;20030;-86
2022/10/28 10:54:00;;;;;;;14.55;3.38;;;25.20;79.10;;;;;;5034420;28;20041;-85
2022/10/28 10:56:31;;;;;;;10.23;2.75;;;25.30;75.90;;;;;;5034316;28;20021;-86
2022/10/28 10:59:03;;;;;;;13.90;3.45;;;25.30;74.80;;;;;;5049132;28;20021;-85
2022/10/28 11:01:38;;;;;;;11.95;3.30;;;25.40;73.00;;;;;;5050222;28;20056;-86
2022/10/28 11:04:06;;;;;;;8.85;2.58;;;25.60;73.40;;;;;;5048997;28;20481;-85
2022/10/28 11:06:38;;;;;;;11.63;3.15;;;25.80;73.10;;;;;;5049005;28;20552;-86
2022/10/28 11:09:06;;;;;;;12.75;3.17;;;25.90;72.00;;;;;;5048870;28;20480;-86
2022/10/28 11:11:37;;;;;;;8.68;2.72;;;26.00;71.20;;;;;;5049010;28;20029;-85
2022/10/28 11:14:18;;;;;;;14.35;3.50;;;26.10;70.70;;;;;;5049948;28;20473;-84
2022/10/28 11:16:58;;;;;;;10.60;3.42;;;26.20;70.30;;;;;;5042457;28;20060;-83
2022/10/28 11:19:29;;;;;;;12.20;2.45;;;26.40;69.40;;;;;;5011836;28;20105;-84
2022/10/28 11:22:43;;;;;;;13.93;4.00;;;26.50;68.70;;;;;;5028763;28;20112;-84
2022/10/28 11:25:26;;;;;;;13.38;3.03;;;26.40;67.30;;;;;;5011701;28;20064;-85
2022/10/28 11:28:06;;;;;;;13.32;3.28;;;26.20;67.20;;;;;;5028692;28;20022;-84
2022/10/28 11:31:04;;;;;;;10.25;2.83;;;26.00;67.50;;;;;;5024846;28;20105;-84
2022/10/28 11:33:33;;;;;;;11.32;3.13;;;26.00;67.50;;;;;;5015337;28;20026;-83
2022/10/28 11:36:10;;;;;;;12.75;2.90;;;26.00;67.40;;;;;;5015123;28;20120;-84
2022/10/28 11:38:54;;;;;;;14.32;3.22;;;25.90;67.60;;;;;;5015135;28;20041;-84
2022/10/28 11:41:38;;;;;;;11.27;3.20;;;26.00;67.60;;;;;;5015154;28;20363;-84
2022/10/28 11:44:16;;;;;;;10.85;3.05;;;26.10;67.50;;;;;;5014917;28;20029;-85
2022/10/28 11:47:00;;;;;;;13.80;3.08;;;26.20;67.10;;;;;;5014982;28;20025;-84
2022/10/28 11:49:35;;;;;;;;;;;26.20;66.30;;;;;;5015658;28;20030;-84
2022/10/28 11:52:40;;;;;;;12.63;3.72;;;26.10;66.40;;;;;;5014839;28;19906;-83
2022/10/28 11:55:20;;;;;;;8.85;3.33;;;26.10;66.50;;;;;;5014621;28;20505;-83
2022/10/28 11:58:01;;;;;;;16.33;3.72;;;26.10;66.50;;;;;;5014971;28;20108;-84
2022/10/28 12:00:27;;;;;;;12.43;3.40;;;26.10;65.60;;;;;;5015961;28;20030;-84
2022/10/28 12:02:59;;;;;;;13.75;3.67;;;26.10;65.80;;;;;;5014844;28;20026;-83
2022/10/28 12:05:37;;;;;;;18.17;3.58;;;26.10;66.10;;;;;;5014811;28;20034;-85
2022/10/28 12:08:18;;;;;;;12.77;2.95;;;26.10;65.80;;;;;;5014939;28;20018;-85
2022/10/28 12:11:02;;;;;;;9.80;2.80;;;26.00;65.70;;;;;;5014649;28;20026;-85
2022/10/28 12:13:47;;;;;;;12.93;3.20;;;26.00;65.80;;;;;;5014452;28;20022;-84
2022/10/28 12:16:21;;;;;;;9.02;2.88;;;26.00;65.90;;;;;;5015667;28;20045;-84
2022/10/28 12:18:52;;;;;;;16.10;3.25;;;26.00;66.10;;;;;;5014468;28;20501;-85
2022/10/28 12:21:42;;;;;;;13.95;3.28;;;26.10;65.90;;;;;;5014697;28;20026;-85
2022/10/28 12:24:15;;;;;;;12.45;3.10;;;26.20;65.70;;;;;;5014381;28;20021;-84
2022/10/28 12:26:46;;;;;;;12.68;3.28;;;26.10;65.40;;;;;;5015565;28;20022;-85
2022/10/28 12:29:36;;;;;;;9.15;2.65;;;26.10;65.30;;;;;;5014122;28;20030;-84
2022/10/28 12:32:25;;;;;;;8.68;3.30;;;26.00;65.10;;;;;;5014064;28;20143;-85
2022/10/28 12:35:12;;;;;;;10.60;2.42;;;26.00;65.50;;;;;;5013961;28;20117;-84
2022/10/28 12:37:42;;;;;;;13.15;3.05;;;26.00;65.00;;;;;;5015918;28;20026;-84
2022/10/28 12:40:15;;;;;;;10.98;2.40;;;26.10;64.80;;;;;;5014107;28;20026;-84
2022/10/28 12:42:45;;;;;;;9.57;2.25;;;26.10;64.80;;;;;;5014384;28;20029;-84
2022/10/28 12:45:14;;;;;;;11.23;2.83;;;26.20;64.50;;;;;;5014071;28;20025;-84
2022/10/28 12:48:13;;;;;;;13.82;3.40;;;26.30;65.00;;;;;;5013782;28;20112;-86
2022/10/28 12:51:04;;;;;;;13.07;3.22;;;26.30;63.90;;;;;;5013752;28;20030;-83
2022/10/28 12:53:48;;;;;;;11.68;2.58;;;26.20;63.70;;;;;;5013612;28;20022;-85
2022/10/28 12:56:37;;;;;;;12.85;3.00;;;26.20;63.20;;;;;;5013712;28;20021;-84
2022/10/28 12:59:10;;;;;;;11.07;3.13;;;26.00;62.90;;;;;;5012984;28;20070;-85
2022/10/28 13:01:36;;;;;;;10.17;3.53;;;25.90;63.10;;;;;;5014829;28;20021;-83
2022/10/28 13:04:02;;;;;;;8.15;2.30;;;25.80;63.60;;;;;;5013418;28;20117;-85
2022/10/28 13:07:06;;;;;;;16.40;2.58;;;26.00;63.70;;;;;;4997188;28;20030;-85
2022/10/28 13:09:55;;;;;;;10.80;2.28;;;26.10;63.10;;;;;;4973616;28;20030;-85
2022/10/28 13:12:45;;;;;;;12.60;2.63;;;26.00;62.70;;;;;;5013123;28;20060;-84
2022/10/28 13:15:26;;;;;;;13.32;3.58;;;25.80;62.70;;;;;;5013262;28;20049;-85
2022/10/28 13:18:04;;;;;;;10.40;3.00;;;25.60;63.20;;;;;;5013178;28;20475;-85
2022/10/28 13:20:40;;;;;;;10.93;2.65;;;25.50;63.60;;;;;;5012898;28;20498;-84
2022/10/28 13:23:30;;;;;;;9.88;3.13;;;25.40;63.80;;;;;;5013255;28;20029;-84
2022/10/28 13:26:08;;;;;;;14.38;3.35;;;25.10;63.80;;;;;;5013099;28;20029;-85
2022/10/28 13:28:45;;;;;;;10.50;2.85;;;24.90;64.40;;;;;;5013126;28;20482;-85
2022/10/28 13:31:11;;;;;;;10.20;2.70;;;24.60;64.80;;;;;;5012930;28;20068;-83
2022/10/28 13:33:37;;;;;;;17.00;4.68;;;24.50;65.40;;;;;;5013732;28;20052;-85
2022/10/28 13:36:19;;;;;;;15.45;3.67;;;24.30;65.80;;;;;;5012958;28;20045;-84
2022/10/28 13:39:00;;;;;;;15.35;3.85;;;24.10;66.40;;;;;;5012804;28;20442;-85
2022/10/28 13:41:39;;;;;;;12.77;3.78;;;24.00;67.00;;;;;;5012777;28;20025;-83
2022/10/28 13:44:08;;;;;;;10.18;3.17;;;23.90;67.60;;;;;;5012174;28;20438;-84
2022/10/28 13:47:11;;;;;;;21.90;4.07;;;23.70;68.00;;;;;;5012401;28;20022;-83
2022/10/28 13:49:37;;;;;;;15.57;3.60;;;23.60;68.40;;;;;;5011918;28;20033;-85
2022/10/28 13:52:05;;;;;;;12.55;3.13;;;23.50;68.70;;;;;;5013167;28;20030;-84
2022/10/28 13:54:43;;;;;;;12.15;3.50;;;23.40;69.00;;;;;;5012302;28;20037;-84
2022/10/28 13:57:23;;;;;;;16.13;4.15;;;23.40;69.50;;;;;;5013707;28;20466;-84
2022/10/28 13:59:53;;;;;;;9.55;2.88;;;23.30;69.80;;;;;;5012486;28;20172;-86
2022/10/28 14:02:36;;;;;;;11.75;3.25;;;23.20;70.00;;;;;;5012759;28;20501;-83
2022/10/28 14:05:07;;;;;;;14.27;3.80;;;23.10;70.30;;;;;;5013741;28;20056;-84
2022/10/28 14:07:35;;;;;;;12.90;3.33;;;23.10;70.50;;;;;;5013940;28;20027;-83
2022/10/28 14:10:25;;;;;;;15.45;3.60;;;23.10;70.80;;;;;;5013175;28;20033;-86
2022/10/28 14:12:58;;;;;;;13.98;3.25;;;23.00;71.00;;;;;;5012515;28;20380;-84
2022/10/28 14:15:34;;;;;;;11.35;3.30;;;23.00;71.00;;;;;;5014528;28;20022;-82
2022/10/28 14:18:05;;;;;;;8.52;3.13;;;23.00;71.40;;;;;;5015533;28;20133;-83
2022/10/28 14:20:38;;;;;;;13.07;3.53;;;22.90;71.50;;;;;;5012690;28;20526;-85
2022/10/28 14:23:19;;;;;;;12.25;3.63;;;22.90;71.90;;;;;;5013493;28;20042;-83
2022/10/28 14:25:53;;;;;;;11.48;3.40;;;22.80;72.00;;;;;;5014473;28;20030;-83
2022/10/28 14:28:30;;;;;;;14.07;3.17;;;22.80;72.10;;;;;;5014814;28;20056;-83
2022/10/28 14:31:11;;;;;;;10.60;3.05;;;22.80;72.90;;;;;;5013292;28;20026;-84
2022/10/28 14:33:37;;;;;;;13.27;3.53;;;22.80;72.50;;;;;;5012309;28;20053;-84
2022/10/28 14:36:18;;;;;;;17.55;3.17;;;22.70;72.60;;;;;;5013706;28;20080;-85
2022/10/28 14:39:06;;;;;;;13.65;3.25;;;22.70;72.70;;;;;;5012079;28;20030;-84
2022/10/28 14:41:44;;;;;;;13.88;3.38;;;22.70;72.80;;;;;;5011827;28;20117;-85
2022/10/28 14:44:46;;;;;;;8.90;3.65;;;22.70;72.90;;;;;;5013030;28;20018;-84
2022/10/28 14:47:26;;;;;;;10.63;3.33;;;22.60;73.20;;;;;;5013385;28;20029;-83
2022/10/28 14:50:22;;;;;;;8.75;2.88;;;22.50;73.40;;;;;;5011873;28;20033;-84
2022/10/28 14:52:50;;;;;;;13.45;3.85;;;22.40;73.70;;;;;;5012037;28;20430;-83
2022/10/28 14:55:29;;;;;;;11.02;3.03;;;22.40;73.80;;;;;;5012150;28;20030;-83
2022/10/28 14:58:21;;;;;;;11.90;3.15;;;22.30;74.00;;;;;;5011985;28;20049;-83
2022/10/28 15:01:15;;;;;;;16.85;3.53;;;22.30;74.20;;;;;;5011961;28;20062;-84
2022/10/28 15:03:50;;;;;;;19.25;3.83;;;22.20;74.50;;;;;;5013212;28;20019;-84
2022/10/28 15:06:25;;;;;;;14.68;3.95;;;22.20;74.70;;;;;;5013564;28;20080;-84
2022/10/28 15:08:53;;;;;;;11.82;3.88;;;22.10;74.90;;;;;;5017081;28;20056;-85
2022/10/28 15:11:19;;;;;;;14.00;3.50;;;22.00;75.30;;;;;;5016934;28;20049;-83
2022/10/28 15:13:50;;;;;;;17.65;3.97;;;21.90;75.40;;;;;;4999711;28;20100;-83
2022/10/28 15:16:24;;;;;;;10.10;3.53;;;21.80;75.80;;;;;;5015499;28;20038;-84
2022/10/28 15:18:52;;;;;;;13.40;4.03;;;21.70;76.10;;;;;;5015238;28;20025;-85
2022/10/28 15:21:20;;;;;;;14.20;3.70;;;21.60;76.50;;;;;;5015346;28;20108;-85
2022/10/28 15:24:01;;;;;;;13.93;3.78;;;21.60;76.70;;;;;;5016873;28;20026;-83
2022/10/28 15:26:26;;;;;;;12.15;3.85;;;21.50;77.10;;;;;;5016939;28;20026;-84
2022/10/28 15:28:52;;;;;;;15.75;4.63;;;21.40;77.40;;;;;;4999078;28;20071;-84